createdAt,value
2022-10-16T00:02:25.658Z,18.02
2022-10-16T00:07:30.820Z,18.45
2022-10-16T00:12:34.134Z,20.77
2022-10-16T00:17:37.618Z,22.70
2022-10-16T00:22:42.322Z,20.40
2022-10-16T00:27:45.632Z,18.05
2022-10-16T00:32:49.038Z,17.58
2022-10-16T00:37:53.728Z,19.00
2022-10-16T00:42:57.308Z,18.80
2022-10-16T00:48:00.697Z,17.63
2022-10-16T00:53:05.685Z,17.55
2022-10-16T00:58:09.387Z,17.50
2022-10-16T01:03:28.466Z,17.80
2022-10-16T01:08:41.325Z,18.50
2022-10-16T01:13:49.022Z,16.70
2022-10-16T01:18:59.012Z,17.80
2022-10-16T01:24:08.896Z,19.50
2022-10-16T01:29:20.270Z,21.60
2022-10-16T01:34:30.104Z,19.55
2022-10-16T01:44:41.731Z,22.02
2022-10-16T01:49:47.040Z,21.25
2022-10-16T01:54:53.164Z,20.38
2022-10-16T02:00:03.419Z,21.15
2022-10-16T02:05:20.774Z,21.87
2022-10-16T02:10:26.182Z,22.30
2022-10-16T02:15:30.953Z,19.75
2022-10-16T02:20:40.077Z,21.60
2022-10-16T02:25:46.790Z,19.67
2022-10-16T02:30:55.834Z,20.35
2022-10-16T02:35:59.876Z,21.47
2022-10-16T02:41:03.452Z,22.25
2022-10-16T02:46:08.357Z,20.33
2022-10-16T02:51:11.934Z,19.95
2022-10-16T02:56:15.317Z,19.77
2022-10-16T03:08:26.562Z,19.10
2022-10-16T03:13:29.864Z,19.42
2022-10-16T03:18:33.266Z,17.85
2022-10-16T03:23:38.025Z,18.60
2022-10-16T03:28:41.416Z,18.88
2022-10-16T03:33:44.792Z,16.90
2022-10-16T03:38:49.592Z,18.27
2022-10-16T03:43:52.921Z,17.27
2022-10-16T03:48:56.430Z,17.83
2022-10-16T03:54:01.153Z,15.73
2022-10-16T03:59:04.484Z,15.35
2022-10-16T04:04:07.811Z,16.90
2022-10-16T04:09:12.612Z,17.05
2022-10-16T04:14:16.250Z,17.65
2022-10-16T04:19:19.575Z,18.08
2022-10-16T04:24:24.466Z,17.45
2022-10-16T04:29:27.837Z,19.27
2022-10-16T04:34:31.170Z,17.27
2022-10-16T04:39:35.927Z,19.13
2022-10-16T04:44:39.303Z,21.23
2022-10-16T04:49:42.674Z,20.65
2022-10-16T04:54:47.457Z,21.15
2022-10-16T04:59:50.818Z,21.48
2022-10-16T05:04:54.191Z,20.98
2022-10-16T05:09:59.013Z,23.25
2022-10-16T05:15:02.486Z,22.63
2022-10-16T05:20:07.030Z,19.92
2022-10-16T05:25:12.051Z,19.35
2022-10-16T05:30:15.406Z,19.92
2022-10-16T05:35:20.477Z,19.00
2022-10-16T05:40:25.266Z,20.65
2022-10-16T05:45:28.622Z,21.85
2022-10-16T05:50:32.035Z,21.33
2022-10-16T05:55:36.811Z,20.30
2022-10-16T06:00:40.249Z,19.83
2022-10-16T06:05:43.915Z,19.92
2022-10-16T06:10:50.393Z,20.60
2022-10-16T06:15:53.785Z,20.33
2022-10-16T06:20:57.512Z,19.10
2022-10-16T06:26:08.619Z,21.98
2022-10-16T06:31:13.336Z,20.15
2022-10-16T06:36:18.477Z,17.83
2022-10-16T06:41:24.837Z,17.35
2022-10-16T06:46:29.432Z,15.88
2022-10-16T06:51:36.813Z,14.05
2022-10-16T07:01:47.167Z,12.27
2022-10-16T07:06:50.713Z,12.05
2022-10-16T07:11:55.463Z,11.40
2022-10-16T07:16:58.866Z,11.88
2022-10-16T07:22:02.526Z,10.27
2022-10-16T07:27:07.838Z,11.45
2022-10-16T07:32:11.237Z,10.50
2022-10-16T07:37:14.583Z,10.93
2022-10-16T07:42:19.460Z,9.82
2022-10-16T07:47:22.892Z,9.48
2022-10-16T07:52:26.258Z,9.73
2022-10-16T07:57:31.094Z,9.32
2022-10-16T08:02:34.408Z,9.27
2022-10-16T08:07:37.737Z,9.52
2022-10-16T08:12:42.436Z,8.68
2022-10-16T08:17:46.025Z,9.32
2022-10-16T08:22:49.682Z,9.30
2022-10-16T08:27:54.459Z,10.13
2022-10-16T08:32:59.175Z,10.07
2022-10-16T08:38:04.875Z,10.35
2022-10-16T08:43:29.575Z,11.18
2022-10-16T08:48:40.142Z,10.25
2022-10-16T08:53:48.618Z,9.15
2022-10-16T08:58:57.991Z,8.85
2022-10-16T09:04:25.481Z,10.00
2022-10-16T09:09:45.454Z,9.15
2022-10-16T09:15:18.950Z,9.25
2022-10-16T09:20:32.565Z,8.88
2022-10-16T09:25:37.084Z,9.70
2022-10-16T09:30:42.100Z,9.60
2022-10-16T09:35:47.640Z,9.13
2022-10-16T09:41:03.046Z,9.00
2022-10-16T09:46:10.392Z,9.35
2022-10-16T09:51:22.385Z,9.07
2022-10-16T09:56:28.410Z,9.05
2022-10-16T10:01:39.668Z,9.25
2022-10-16T10:06:49.761Z,8.25
2022-10-16T10:11:56.426Z,7.32
2022-10-16T10:17:16.912Z,8.48
2022-10-16T10:22:33.525Z,10.80
2022-10-16T10:27:45.345Z,8.13
2022-10-16T10:32:58.536Z,7.45
2022-10-16T10:38:15.556Z,8.32
2022-10-16T10:43:33.449Z,8.52
2022-10-16T10:49:01.449Z,7.25
2022-10-16T10:54:17.043Z,10.73
2022-10-16T10:59:45.850Z,11.32
2022-10-16T11:05:22.597Z,9.10
2022-10-16T11:10:31.285Z,8.80
2022-10-16T11:15:38.731Z,8.25
2022-10-16T11:20:47.833Z,8.63
2022-10-16T11:25:51.525Z,8.77
2022-10-16T11:31:01.397Z,9.95
2022-10-16T11:36:14.425Z,8.95
2022-10-16T11:41:25.690Z,8.82
2022-10-16T11:46:29.883Z,9.10
2022-10-16T11:51:40.475Z,7.38
2022-10-16T11:56:47.300Z,9.07
2022-10-16T12:01:56.145Z,7.95
2022-10-16T12:07:06.841Z,8.67
2022-10-16T12:12:29.088Z,9.30
2022-10-16T12:17:41.354Z,13.05
2022-10-16T12:23:02.106Z,11.13
2022-10-16T12:28:07.886Z,15.10
2022-10-16T12:33:24.222Z,9.90
2022-10-16T12:38:40.389Z,10.80
2022-10-16T12:43:46.138Z,10.35
2022-10-16T12:49:05.934Z,10.15
2022-10-16T12:54:17.746Z,21.25
2022-10-16T12:59:33.446Z,12.75
2022-10-16T13:04:52.527Z,13.18
2022-10-16T13:10:09.597Z,15.70
2022-10-16T13:15:43.311Z,13.32
2022-10-16T13:21:07.180Z,11.88
2022-10-16T13:26:22.265Z,11.52
2022-10-16T13:31:27.242Z,11.98
2022-10-16T13:36:32.670Z,11.40
2022-10-16T13:41:37.498Z,11.38
2022-10-16T13:46:40.793Z,10.10
2022-10-16T13:51:56.555Z,9.85
2022-10-16T13:57:26.413Z,10.27
2022-10-16T14:02:35.985Z,16.88
2022-10-16T14:07:40.325Z,9.20
2022-10-16T14:12:46.260Z,9.85
2022-10-16T14:17:52.838Z,11.60
2022-10-16T14:23:05.548Z,9.10
2022-10-16T14:28:20.366Z,9.18
2022-10-16T14:33:26.428Z,9.18
2022-10-16T14:38:33.452Z,10.77
2022-10-16T14:43:40.095Z,11.63
2022-10-16T14:48:44.329Z,12.45
2022-10-16T14:53:47.768Z,10.65
2022-10-16T14:58:53.484Z,10.05
2022-10-16T15:03:57.288Z,11.70
2022-10-16T15:09:00.755Z,12.82
2022-10-16T15:14:06.095Z,12.98
2022-10-16T15:19:09.536Z,11.50
2022-10-16T15:24:17.813Z,11.38
2022-10-16T15:29:25.550Z,14.43
2022-10-16T15:34:28.914Z,13.88
2022-10-16T15:39:32.293Z,12.68
2022-10-16T15:44:36.973Z,13.50
2022-10-16T15:49:40.878Z,17.58
2022-10-16T15:54:44.293Z,16.13
2022-10-16T15:59:49.043Z,15.48
2022-10-16T16:04:52.614Z,16.30
2022-10-16T16:09:56.086Z,16.42
2022-10-16T16:15:03.491Z,16.45
2022-10-16T16:20:10.385Z,16.00
2022-10-16T16:25:14.026Z,13.85
2022-10-16T16:30:20.526Z,14.93
2022-10-16T16:35:26.318Z,28.80
2022-10-16T16:40:29.743Z,22.17
2022-10-16T16:45:37.347Z,18.23
2022-10-16T16:50:40.814Z,18.75
2022-10-16T16:55:44.259Z,19.00
2022-10-16T17:00:56.735Z,21.30
2022-10-16T17:06:08.353Z,21.65
2022-10-16T17:11:16.133Z,25.08
2022-10-16T17:16:20.922Z,22.48
2022-10-16T17:21:24.293Z,23.70
2022-10-16T17:26:28.447Z,23.27
2022-10-16T17:31:36.730Z,18.73
2022-10-16T17:36:43.956Z,23.33
2022-10-16T17:41:48.478Z,21.17
2022-10-16T17:46:54.973Z,19.13
2022-10-16T17:51:59.102Z,19.10
2022-10-16T17:57:02.666Z,19.58
2022-10-16T18:02:08.082Z,23.58
2022-10-16T18:07:11.698Z,24.80
2022-10-16T18:12:15.276Z,19.38
2022-10-16T18:17:19.994Z,23.98
2022-10-16T18:22:23.796Z,42.67
2022-10-16T18:27:27.976Z,26.27
2022-10-16T18:32:32.855Z,22.17
2022-10-16T18:37:37.187Z,23.95
2022-10-16T18:42:40.791Z,24.63
2022-10-16T18:47:46.183Z,26.95
2022-10-16T18:52:50.032Z,27.60
2022-10-16T18:57:55.207Z,26.15
2022-10-16T19:03:00.114Z,26.45
2022-10-16T19:08:03.520Z,31.23
2022-10-16T19:13:08.939Z,23.92
2022-10-16T19:18:16.024Z,25.58
2022-10-16T19:23:20.034Z,25.58
2022-10-16T19:28:30.624Z,25.67
2022-10-16T19:33:36.301Z,24.05
2022-10-16T19:38:40.393Z,34.22
2022-10-16T19:43:44.550Z,31.67
2022-10-16T19:48:49.485Z,31.17
2022-10-16T19:53:56.877Z,26.65
2022-10-16T19:59:00.989Z,26.00
2022-10-16T20:04:06.041Z,25.20
2022-10-16T20:09:09.711Z,28.80
2022-10-16T20:14:13.106Z,24.20
2022-10-16T20:19:17.817Z,30.02
2022-10-16T20:24:21.172Z,29.27
2022-10-16T20:29:24.639Z,24.90
2022-10-16T20:34:29.484Z,39.10
2022-10-16T20:39:32.995Z,28.08
2022-10-16T20:44:36.364Z,28.42
2022-10-16T20:49:41.280Z,22.98
2022-10-16T20:54:46.115Z,23.73
2022-10-16T20:59:55.003Z,23.80
2022-10-16T21:04:59.968Z,24.87
2022-10-16T21:10:03.397Z,24.33
2022-10-16T21:15:14.696Z,25.48
2022-10-16T21:20:21.614Z,27.05
2022-10-16T21:25:24.988Z,28.02
2022-10-16T21:30:28.529Z,26.65
2022-10-16T21:35:33.330Z,25.17
2022-10-16T21:40:36.657Z,26.52
2022-10-16T21:45:40.023Z,26.42
2022-10-16T21:50:50.021Z,27.55
2022-10-16T22:00:56.607Z,29.75
2022-10-16T22:06:06.695Z,27.80
2022-10-16T22:11:12.397Z,27.73
2022-10-16T22:16:16.711Z,26.58
2022-10-16T22:21:21.538Z,26.60
2022-10-16T22:26:24.844Z,25.30
2022-10-16T22:31:28.872Z,25.70
2022-10-16T22:36:34.704Z,25.30
2022-10-16T22:41:38.196Z,25.38
2022-10-16T22:46:41.537Z,24.08
2022-10-16T22:51:46.601Z,24.27
2022-10-16T22:56:49.957Z,25.05
2022-10-16T23:01:53.331Z,25.30
2022-10-16T23:06:59.190Z,23.23
2022-10-16T23:12:02.490Z,24.50
2022-10-16T23:17:05.783Z,23.35
2022-10-16T23:22:10.473Z,23.88
2022-10-16T23:27:13.826Z,25.42
2022-10-16T23:32:17.190Z,24.40
2022-10-16T23:37:21.927Z,21.98
2022-10-16T23:42:25.534Z,22.92
2022-10-16T23:47:29.392Z,22.35
2022-10-16T23:52:34.683Z,24.35
2022-10-16T23:57:38.018Z,22.55
